Sebasco Estates, Maine
Current Conditions -  °F | °C
As of 11:53 PM on Friday 24 Oct 2014 (Local Time) from KIWI Reporting Station
Overcast Overcast  
Wind Chill: 48°   Ceiling: 3500
Heat Index: 48°   Visibility: 10mi
Dew Point: 42°   Wind: 0mph
Humidity: 80%   Direction: NA
Pressure: 29.7"   Gusts: NA
Location:  43.77°N, 69.86°W
Report Text: KIWI 250353Z AUTO 00000KT 10SM OVC035 09/06 A2970 RMK AO2 SLP056 T00890056
Loading
Personal Weather Stations






























Interactive Weather Map
Tropical Storm Tracking
New forecast layout! Learn more

10-Day Weather Forecast

Advertisements
Track Severe Weather on mobile